Friday Harbor, WA

2:35 PM PDT on September 20, 2014 (GMT -0700)
Mineral Point | Change Station
CLOSE
Current Station
Personal Weather Station
Location: Friday Harbor, WA
Elevation: 15 ft
Nearby Weather Stations

Elev 15 ft 48.59 °N, 123.08 °W | Updated 2 seconds ago

Clear
Clear
59.0 °F
Feels Like 59.0 °F
N
0.0
Wind Variable Wind from SE

Today
High -- | Low -- °F
--% Chance of Precip.
Yesterday
High -- | Low -- °F
Precip. -- in
6:56 AM 7:14 PM
Waning Crescent, 10% visible
Pressure 30.06 in
Visibility 10.0 miles
Clouds Clear
Dew Point 59.0 °F
Humidity 100%
Rainfall 0.00 in
Snow Depth 0 in , 1 in , 0 in
UV 5 out of 12
Pollen 1.30 out of 12
Air Quality Not available.
Flu Activity Not available.
METAR KFHR 202053Z AUTO 35009KT 10SM CLR 19/13 A3007 RMK AO2 SLP180 T01940133 58024

More Conditions Fewer Conditions

Pressure 30.06 in
Visibility 10.0 miles
Clouds Clear
Dew Point 59.0 °F
Humidity 100%
Rainfall 0.00 in
Snow Depth 0 in , 1 in , 0 in
UV 5 out of 12
Pollen 1.30 out of 12
Air Quality Not available.
Flu Activity Not available.
METAR KFHR 202053Z AUTO 35009KT 10SM CLR 19/13 A3007 RMK AO2 SLP180 T01940133 58024

More Conditions Fewer Conditions

10-Day Weather Forecast

Almanac

Astronomy

Sep. 20, 2014 Rise Set
Actual Time 6:56 AM PDT 7:14 PM PDT
Civil Twilight 6:24 AM PDT 7:45 PM PDT
Nautical Twilight 5:47 AM PDT 8:22 PM PDT
Astronomical Twilight 5:09 AM PDT 9:00 PM PDT
Moon 3:27 AM PDT 5:31 PM PDT
Length of Visible Light 13h 20m
Length of Day
12h 17m
Tomorrow will be 3m 30s shorter.
Waning Crescent, 10% of the Moon is Illuminated
Today
Waning Crescent
Sep 24
New
Oct 1
First Quarter
Oct 8
Full
Oct 15
Last Quarter

Today's Extremes

State Highs State Lows

Community

WunderPhotos

Upload Photos

1,754,947 photos uploaded!

WunderBlogs® & News

Nearby

Snow Depth

Station Depth Elevation
Harts Pass 0 in 6500 ft
Surprise Lakes 1 in 4250 ft
Stevens Pass 0 in 4070 ft
Sasse Ridge 0 in 4200 ft
Quartz Peak 0 in 4700 ft

Earthquake Activity

City Distance Mag. Time & Date
Seabeck, Washington 71 miles 4.0 3:06 AM PDT
2014-09-17
Minimum magnitude displayed is 2.5.

Coastal Water Temperatures

Place Temperature
Port Townsend, WA 53.1 °F
Friday Harbor, WA 52.0 °F
Port Angeles, WA 52.0 °F

Nearby Weather Stations